sensor_id;sensor_type;location;lat;lon;timestamp;temperature;humidity
52103;DHT22;38101;53.126;6.878;2023-05-29T00:00:46;11.30;99.90
52103;DHT22;38101;53.126;6.878;2023-05-29T00:03:12;11.30;99.90
52103;DHT22;38101;53.126;6.878;2023-05-29T00:05:38;11.20;99.90
52103;DHT22;38101;53.126;6.878;2023-05-29T00:08:04;11.20;99.90
52103;DHT22;38101;53.126;6.878;2023-05-29T00:10:30;11.20;99.90
52103;DHT22;38101;53.126;6.878;2023-05-29T00:12:57;11.20;99.90
52103;DHT22;38101;53.126;6.878;2023-05-29T00:15:23;11.20;99.90
52103;DHT22;38101;53.126;6.878;2023-05-29T00:17:49;11.20;99.90
52103;DHT22;38101;53.126;6.878;2023-05-29T00:20:14;11.10;99.90
52103;DHT22;38101;53.126;6.878;2023-05-29T00:22:41;11.10;99.90
52103;DHT22;38101;53.126;6.878;2023-05-29T00:25:07;11.10;99.90
52103;DHT22;38101;53.126;6.878;2023-05-29T00:27:34;11.10;99.90
52103;DHT22;38101;53.126;6.878;2023-05-29T00:30:00;11.10;99.90
52103;DHT22;38101;53.126;6.878;2023-05-29T00:32:26;11.00;99.90
52103;DHT22;38101;53.126;6.878;2023-05-29T00:34:53;11.00;99.90
52103;DHT22;38101;53.126;6.878;2023-05-29T00:37:19;11.00;99.90
52103;DHT22;38101;53.126;6.878;2023-05-29T00:39:47;11.00;99.90
52103;DHT22;38101;53.126;6.878;2023-05-29T00:42:13;10.90;99.90
52103;DHT22;38101;53.126;6.878;2023-05-29T00:44:38;10.90;99.90
52103;DHT22;38101;53.126;6.878;2023-05-29T00:47:04;10.80;99.90
52103;DHT22;38101;53.126;6.878;2023-05-29T00:49:31;10.80;99.90
52103;DHT22;38101;53.126;6.878;2023-05-29T00:51:57;10.80;99.90
52103;DHT22;38101;53.126;6.878;2023-05-29T00:54:26;10.70;99.90
52103;DHT22;38101;53.126;6.878;2023-05-29T00:56:54;10.70;99.90
52103;DHT22;38101;53.126;6.878;2023-05-29T00:59:20;10.80;99.90
52103;DHT22;38101;53.126;6.878;2023-05-29T01:01:48;10.70;99.90
52103;DHT22;38101;53.126;6.878;2023-05-29T01:04:16;10.70;99.90
52103;DHT22;38101;53.126;6.878;2023-05-29T01:06:42;10.70;99.90
52103;DHT22;38101;53.126;6.878;2023-05-29T01:09:09;10.70;99.90
52103;DHT22;38101;53.126;6.878;2023-05-29T01:25:02;10.60;99.90
52103;DHT22;38101;53.126;6.878;2023-05-29T01:27:32;10.60;99.90
52103;DHT22;38101;53.126;6.878;2023-05-29T01:29:59;10.60;99.90
52103;DHT22;38101;53.126;6.878;2023-05-29T01:32:27;10.60;99.90
52103;DHT22;38101;53.126;6.878;2023-05-29T01:34:53;10.60;99.90
52103;DHT22;38101;53.126;6.878;2023-05-29T01:37:19;10.60;99.90
52103;DHT22;38101;53.126;6.878;2023-05-29T01:39:44;10.50;99.90
52103;DHT22;38101;53.126;6.878;2023-05-29T01:42:10;10.50;99.90
52103;DHT22;38101;53.126;6.878;2023-05-29T01:44:37;10.50;99.90
52103;DHT22;38101;53.126;6.878;2023-05-29T01:47:04;10.40;99.90
52103;DHT22;38101;53.126;6.878;2023-05-29T01:49:31;10.40;99.90
52103;DHT22;38101;53.126;6.878;2023-05-29T01:51:58;10.40;99.90
52103;DHT22;38101;53.126;6.878;2023-05-29T01:54:23;10.30;99.90
52103;DHT22;38101;53.126;6.878;2023-05-29T01:56:49;10.30;99.90
52103;DHT22;38101;53.126;6.878;2023-05-29T01:59:16;10.30;99.90
52103;DHT22;38101;53.126;6.878;2023-05-29T02:01:42;10.20;99.90
52103;DHT22;38101;53.126;6.878;2023-05-29T02:04:08;10.20;99.90
52103;DHT22;38101;53.126;6.878;2023-05-29T02:06:34;10.20;99.90
52103;DHT22;38101;53.126;6.878;2023-05-29T02:08:59;10.20;99.90
52103;DHT22;38101;53.126;6.878;2023-05-29T02:11:25;10.20;99.90
52103;DHT22;38101;53.126;6.878;2023-05-29T02:13:54;10.20;99.90
52103;DHT22;38101;53.126;6.878;2023-05-29T02:16:20;10.10;99.90
52103;DHT22;38101;53.126;6.878;2023-05-29T02:18:46;10.20;99.90
52103;DHT22;38101;53.126;6.878;2023-05-29T02:21:12;10.10;99.90
52103;DHT22;38101;53.126;6.878;2023-05-29T02:23:38;10.10;99.90
52103;DHT22;38101;53.126;6.878;2023-05-29T02:26:04;10.10;99.90
52103;DHT22;38101;53.126;6.878;2023-05-29T02:28:30;10.10;99.90
52103;DHT22;38101;53.126;6.878;2023-05-29T02:30:56;10.10;99.90
52103;DHT22;38101;53.126;6.878;2023-05-29T02:33:22;10.00;99.90
52103;DHT22;38101;53.126;6.878;2023-05-29T02:35:47;10.00;99.90
52103;DHT22;38101;53.126;6.878;2023-05-29T02:38:13;10.00;99.90
52103;DHT22;38101;53.126;6.878;2023-05-29T02:40:39;10.00;99.90
52103;DHT22;38101;53.126;6.878;2023-05-29T02:43:05;10.00;99.90
52103;DHT22;38101;53.126;6.878;2023-05-29T02:45:31;10.00;99.90
52103;DHT22;38101;53.126;6.878;2023-05-29T02:47:57;10.00;99.90
52103;DHT22;38101;53.126;6.878;2023-05-29T02:50:23;10.00;99.90
52103;DHT22;38101;53.126;6.878;2023-05-29T02:52:48;10.00;99.90
52103;DHT22;38101;53.126;6.878;2023-05-29T02:55:14;9.90;99.90
52103;DHT22;38101;53.126;6.878;2023-05-29T02:57:40;9.90;99.90
52103;DHT22;38101;53.126;6.878;2023-05-29T03:00:07;9.90;99.90
52103;DHT22;38101;53.126;6.878;2023-05-29T03:02:33;9.80;99.90
52103;DHT22;38101;53.126;6.878;2023-05-29T03:05:00;9.80;99.90
52103;DHT22;38101;53.126;6.878;2023-05-29T03:07:26;9.80;99.90
52103;DHT22;38101;53.126;6.878;2023-05-29T03:09:52;9.80;99.90
52103;DHT22;38101;53.126;6.878;2023-05-29T03:12:17;9.80;99.90
52103;DHT22;38101;53.126;6.878;2023-05-29T03:14:44;9.70;99.90
52103;DHT22;38101;53.126;6.878;2023-05-29T03:17:10;9.70;99.90
52103;DHT22;38101;53.126;6.878;2023-05-29T03:19:36;9.70;99.90
52103;DHT22;38101;53.126;6.878;2023-05-29T03:22:03;9.70;99.90
52103;DHT22;38101;53.126;6.878;2023-05-29T03:24:28;9.70;99.90
52103;DHT22;38101;53.126;6.878;2023-05-29T03:26:54;9.70;99.90
52103;DHT22;38101;53.126;6.878;2023-05-29T03:29:21;9.70;99.90
52103;DHT22;38101;53.126;6.878;2023-05-29T03:31:47;9.70;99.90
52103;DHT22;38101;53.126;6.878;2023-05-29T03:34:13;9.70;99.90
52103;DHT22;38101;53.126;6.878;2023-05-29T03:36:39;9.70;99.90
52103;DHT22;38101;53.126;6.878;2023-05-29T03:39:05;9.70;99.90
52103;DHT22;38101;53.126;6.878;2023-05-29T03:41:30;9.70;99.90
52103;DHT22;38101;53.126;6.878;2023-05-29T03:43:56;9.70;99.90
52103;DHT22;38101;53.126;6.878;2023-05-29T03:46:21;9.80;99.90
52103;DHT22;38101;53.126;6.878;2023-05-29T03:48:47;9.70;99.90
52103;DHT22;38101;53.126;6.878;2023-05-29T03:51:13;9.80;99.90
52103;DHT22;38101;53.126;6.878;2023-05-29T03:53:39;9.80;99.90
52103;DHT22;38101;53.126;6.878;2023-05-29T03:56:05;9.70;99.90
52103;DHT22;38101;53.126;6.878;2023-05-29T03:58:31;9.80;99.90
52103;DHT22;38101;53.126;6.878;2023-05-29T04:00:56;9.80;99.90
52103;DHT22;38101;53.126;6.878;2023-05-29T04:03:22;9.80;99.90
52103;DHT22;38101;53.126;6.878;2023-05-29T04:05:48;9.80;99.90
52103;DHT22;38101;53.126;6.878;2023-05-29T04:08:14;9.90;99.90
52103;DHT22;38101;53.126;6.878;2023-05-29T04:10:40;9.90;99.90
52103;DHT22;38101;53.126;6.878;2023-05-29T04:13:05;10.00;99.90
52103;DHT22;38101;53.126;6.878;2023-05-29T04:15:31;10.00;99.90
52103;DHT22;38101;53.126;6.878;2023-05-29T04:17:59;10.00;99.90
52103;DHT22;38101;53.126;6.878;2023-05-29T04:20:24;10.00;99.90
52103;DHT22;38101;53.126;6.878;2023-05-29T04:22:51;10.00;99.90
52103;DHT22;38101;53.126;6.878;2023-05-29T04:25:17;10.00;99.90
52103;DHT22;38101;53.126;6.878;2023-05-29T04:27:44;10.20;99.90
52103;DHT22;38101;53.126;6.878;2023-05-29T04:30:14;10.10;99.90
52103;DHT22;38101;53.126;6.878;2023-05-29T04:32:40;10.20;99.90
52103;DHT22;38101;53.126;6.878;2023-05-29T04:35:06;10.10;99.90
52103;DHT22;38101;53.126;6.878;2023-05-29T04:37:32;10.10;99.90
52103;DHT22;38101;53.126;6.878;2023-05-29T04:40:06;10.20;99.90
52103;DHT22;38101;53.126;6.878;2023-05-29T04:42:36;10.20;99.90
52103;DHT22;38101;53.126;6.878;2023-05-29T04:45:03;10.20;99.90
52103;DHT22;38101;53.126;6.878;2023-05-29T04:47:30;10.30;99.90
52103;DHT22;38101;53.126;6.878;2023-05-29T04:49:59;10.40;99.90
52103;DHT22;38101;53.126;6.878;2023-05-29T04:52:25;10.40;99.90
52103;DHT22;38101;53.126;6.878;2023-05-29T04:54:51;10.50;99.90
52103;DHT22;38101;53.126;6.878;2023-05-29T04:57:17;10.60;99.90
52103;DHT22;38101;53.126;6.878;2023-05-29T04:59:43;10.60;99.90
52103;DHT22;38101;53.126;6.878;2023-05-29T05:02:09;10.60;99.90
52103;DHT22;38101;53.126;6.878;2023-05-29T05:04:34;10.70;99.90
52103;DHT22;38101;53.126;6.878;2023-05-29T05:07:00;10.80;99.90
52103;DHT22;38101;53.126;6.878;2023-05-29T05:09:27;10.80;99.90
52103;DHT22;38101;53.126;6.878;2023-05-29T05:11:53;10.90;99.90
52103;DHT22;38101;53.126;6.878;2023-05-29T05:14:18;10.90;99.90
52103;DHT22;38101;53.126;6.878;2023-05-29T05:16:44;11.00;99.90
52103;DHT22;38101;53.126;6.878;2023-05-29T05:19:10;11.00;99.90
52103;DHT22;38101;53.126;6.878;2023-05-29T05:21:35;11.10;99.90
52103;DHT22;38101;53.126;6.878;2023-05-29T05:24:01;11.10;99.90
52103;DHT22;38101;53.126;6.878;2023-05-29T05:26:27;11.10;99.90
52103;DHT22;38101;53.126;6.878;2023-05-29T05:28:53;11.20;99.90
52103;DHT22;38101;53.126;6.878;2023-05-29T05:31:19;11.20;99.90
52103;DHT22;38101;53.126;6.878;2023-05-29T05:33:44;11.20;99.90
52103;DHT22;38101;53.126;6.878;2023-05-29T05:36:11;11.20;99.90
52103;DHT22;38101;53.126;6.878;2023-05-29T05:38:37;11.20;99.90
52103;DHT22;38101;53.126;6.878;2023-05-29T05:41:02;11.20;99.90
52103;DHT22;38101;53.126;6.878;2023-05-29T05:43:28;11.20;99.90
52103;DHT22;38101;53.126;6.878;2023-05-29T05:45:55;11.20;99.90
52103;DHT22;38101;53.126;6.878;2023-05-29T05:48:20;11.30;99.90
52103;DHT22;38101;53.126;6.878;2023-05-29T05:50:46;11.30;99.90
52103;DHT22;38101;53.126;6.878;2023-05-29T05:53:12;11.30;99.90
52103;DHT22;38101;53.126;6.878;2023-05-29T05:55:37;11.30;99.90
52103;DHT22;38101;53.126;6.878;2023-05-29T05:58:03;11.30;99.90
52103;DHT22;38101;53.126;6.878;2023-05-29T06:00:29;11.40;99.90
52103;DHT22;38101;53.126;6.878;2023-05-29T06:02:55;11.40;99.90
52103;DHT22;38101;53.126;6.878;2023-05-29T06:05:21;11.40;99.90
52103;DHT22;38101;53.126;6.878;2023-05-29T06:07:46;11.50;99.90
52103;DHT22;38101;53.126;6.878;2023-05-29T06:10:12;11.50;99.90
52103;DHT22;38101;53.126;6.878;2023-05-29T06:12:38;11.50;99.90
52103;DHT22;38101;53.126;6.878;2023-05-29T06:15:04;11.50;99.90
52103;DHT22;38101;53.126;6.878;2023-05-29T06:17:31;11.60;99.90
52103;DHT22;38101;53.126;6.878;2023-05-29T06:19:57;11.60;99.90
52103;DHT22;38101;53.126;6.878;2023-05-29T06:22:22;11.70;99.90
52103;DHT22;38101;53.126;6.878;2023-05-29T06:24:48;11.70;99.90
52103;DHT22;38101;53.126;6.878;2023-05-29T06:27:14;11.70;99.90
52103;DHT22;38101;53.126;6.878;2023-05-29T06:29:40;11.70;99.90
52103;DHT22;38101;53.126;6.878;2023-05-29T06:32:06;11.80;99.90
52103;DHT22;38101;53.126;6.878;2023-05-29T06:34:31;11.80;99.90
52103;DHT22;38101;53.126;6.878;2023-05-29T06:36:57;11.90;99.90
52103;DHT22;38101;53.126;6.878;2023-05-29T06:39:23;11.90;99.90
52103;DHT22;38101;53.126;6.878;2023-05-29T06:41:49;11.90;99.90
52103;DHT22;38101;53.126;6.878;2023-05-29T06:44:15;12.00;99.90
52103;DHT22;38101;53.126;6.878;2023-05-29T06:46:40;12.00;99.90
52103;DHT22;38101;53.126;6.878;2023-05-29T06:49:06;12.00;99.90
52103;DHT22;38101;53.126;6.878;2023-05-29T06:51:33;12.10;99.90
52103;DHT22;38101;53.126;6.878;2023-05-29T06:53:59;12.10;99.90
52103;DHT22;38101;53.126;6.878;2023-05-29T06:56:24;12.10;99.90
52103;DHT22;38101;53.126;6.878;2023-05-29T06:58:51;12.20;99.90
52103;DHT22;38101;53.126;6.878;2023-05-29T07:01:17;12.20;99.90
52103;DHT22;38101;53.126;6.878;2023-05-29T07:03:43;12.20;99.90
52103;DHT22;38101;53.126;6.878;2023-05-29T07:06:08;12.20;99.90
52103;DHT22;38101;53.126;6.878;2023-05-29T07:08:34;12.30;99.90
52103;DHT22;38101;53.126;6.878;2023-05-29T07:11:01;12.30;99.90
52103;DHT22;38101;53.126;6.878;2023-05-29T07:13:27;12.30;99.90
52103;DHT22;38101;53.126;6.878;2023-05-29T07:15:53;12.40;99.90
52103;DHT22;38101;53.126;6.878;2023-05-29T07:18:18;12.50;99.90
52103;DHT22;38101;53.126;6.878;2023-05-29T07:20:44;12.60;99.90
52103;DHT22;38101;53.126;6.878;2023-05-29T07:23:10;12.60;99.90
52103;DHT22;38101;53.126;6.878;2023-05-29T07:25:36;12.70;99.90
52103;DHT22;38101;53.126;6.878;2023-05-29T07:28:02;12.70;99.90
52103;DHT22;38101;53.126;6.878;2023-05-29T07:30:27;12.70;99.90
52103;DHT22;38101;53.126;6.878;2023-05-29T07:32:53;12.70;99.90
52103;DHT22;38101;53.126;6.878;2023-05-29T07:35:19;12.80;99.90
52103;DHT22;38101;53.126;6.878;2023-05-29T07:37:45;12.80;99.90
52103;DHT22;38101;53.126;6.878;2023-05-29T07:40:10;12.80;99.90
52103;DHT22;38101;53.126;6.878;2023-05-29T07:42:36;12.90;99.90
52103;DHT22;38101;53.126;6.878;2023-05-29T07:45:02;12.90;99.90
52103;DHT22;38101;53.126;6.878;2023-05-29T07:47:27;12.90;99.90
52103;DHT22;38101;53.126;6.878;2023-05-29T07:49:53;12.90;99.90
52103;DHT22;38101;53.126;6.878;2023-05-29T07:52:19;12.90;99.90
52103;DHT22;38101;53.126;6.878;2023-05-29T07:54:45;12.90;99.90
52103;DHT22;38101;53.126;6.878;2023-05-29T07:57:11;12.90;99.90
52103;DHT22;38101;53.126;6.878;2023-05-29T07:59:37;12.90;99.90
52103;DHT22;38101;53.126;6.878;2023-05-29T08:02:03;12.90;99.90
52103;DHT22;38101;53.126;6.878;2023-05-29T08:04:29;12.90;99.90
52103;DHT22;38101;53.126;6.878;2023-05-29T08:06:56;13.00;99.90
52103;DHT22;38101;53.126;6.878;2023-05-29T08:09:22;13.00;99.90
52103;DHT22;38101;53.126;6.878;2023-05-29T08:11:47;13.00;99.90
52103;DHT22;38101;53.126;6.878;2023-05-29T08:14:14;13.10;99.90
52103;DHT22;38101;53.126;6.878;2023-05-29T08:16:41;13.20;99.90
52103;DHT22;38101;53.126;6.878;2023-05-29T08:19:06;13.20;99.90
52103;DHT22;38101;53.126;6.878;2023-05-29T08:21:32;13.20;99.90
52103;DHT22;38101;53.126;6.878;2023-05-29T08:23:58;13.20;99.90
52103;DHT22;38101;53.126;6.878;2023-05-29T08:26:25;13.20;99.90
52103;DHT22;38101;53.126;6.878;2023-05-29T08:28:51;13.30;99.90
52103;DHT22;38101;53.126;6.878;2023-05-29T08:31:17;13.30;99.90
52103;DHT22;38101;53.126;6.878;2023-05-29T08:33:42;13.40;99.90
52103;DHT22;38101;53.126;6.878;2023-05-29T08:36:08;13.40;99.90
52103;DHT22;38101;53.126;6.878;2023-05-29T08:38:37;13.40;99.90
52103;DHT22;38101;53.126;6.878;2023-05-29T08:41:03;13.50;99.90
52103;DHT22;38101;53.126;6.878;2023-05-29T08:43:33;13.60;99.90
52103;DHT22;38101;53.126;6.878;2023-05-29T08:46:02;13.60;99.90
52103;DHT22;38101;53.126;6.878;2023-05-29T08:48:29;13.60;99.90
52103;DHT22;38101;53.126;6.878;2023-05-29T08:50:56;13.60;99.90
52103;DHT22;38101;53.126;6.878;2023-05-29T08:53:23;13.70;99.90
52103;DHT22;38101;53.126;6.878;2023-05-29T08:55:50;13.70;99.90
52103;DHT22;38101;53.126;6.878;2023-05-29T08:58:17;13.70;99.90
52103;DHT22;38101;53.126;6.878;2023-05-29T09:00:45;13.80;99.90
52103;DHT22;38101;53.126;6.878;2023-05-29T09:03:11;13.80;99.90
52103;DHT22;38101;53.126;6.878;2023-05-29T09:05:39;13.80;99.90
52103;DHT22;38101;53.126;6.878;2023-05-29T09:08:08;13.80;99.90
52103;DHT22;38101;53.126;6.878;2023-05-29T09:10:35;13.80;99.90
52103;DHT22;38101;53.126;6.878;2023-05-29T09:13:01;13.80;99.90
52103;DHT22;38101;53.126;6.878;2023-05-29T09:15:27;13.80;99.90
52103;DHT22;38101;53.126;6.878;2023-05-29T09:17:55;13.80;99.90
52103;DHT22;38101;53.126;6.878;2023-05-29T09:20:23;13.90;99.90
52103;DHT22;38101;53.126;6.878;2023-05-29T09:23:00;13.90;99.90
52103;DHT22;38101;53.126;6.878;2023-05-29T09:25:31;13.90;99.90
52103;DHT22;38101;53.126;6.878;2023-05-29T09:28:00;13.90;99.90
52103;DHT22;38101;53.126;6.878;2023-05-29T09:30:35;13.90;99.90
52103;DHT22;38101;53.126;6.878;2023-05-29T09:33:02;14.00;99.90
52103;DHT22;38101;53.126;6.878;2023-05-29T09:35:47;14.10;99.90
52103;DHT22;38101;53.126;6.878;2023-05-29T09:38:15;14.30;99.90
52103;DHT22;38101;53.126;6.878;2023-05-29T09:40:44;14.30;99.90
52103;DHT22;38101;53.126;6.878;2023-05-29T09:43:14;14.40;99.90
52103;DHT22;38101;53.126;6.878;2023-05-29T09:45:41;14.30;99.90
52103;DHT22;38101;53.126;6.878;2023-05-29T09:48:08;14.40;99.90
52103;DHT22;38101;53.126;6.878;2023-05-29T09:50:36;14.30;99.90
52103;DHT22;38101;53.126;6.878;2023-05-29T09:53:01;14.40;99.90
52103;DHT22;38101;53.126;6.878;2023-05-29T09:55:28;14.40;99.90
52103;DHT22;38101;53.126;6.878;2023-05-29T09:57:55;14.50;99.90
52103;DHT22;38101;53.126;6.878;2023-05-29T10:00:21;14.50;99.90
52103;DHT22;38101;53.126;6.878;2023-05-29T10:02:49;14.50;99.90
52103;DHT22;38101;53.126;6.878;2023-05-29T10:05:14;14.50;99.90
52103;DHT22;38101;53.126;6.878;2023-05-29T10:07:50;14.60;99.90
52103;DHT22;38101;53.126;6.878;2023-05-29T10:10:19;14.60;99.90
52103;DHT22;38101;53.126;6.878;2023-05-29T10:12:48;14.70;99.90
52103;DHT22;38101;53.126;6.878;2023-05-29T10:15:15;14.70;99.90
52103;DHT22;38101;53.126;6.878;2023-05-29T10:18:00;14.80;99.90
52103;DHT22;38101;53.126;6.878;2023-05-29T10:20:28;14.80;99.90
52103;DHT22;38101;53.126;6.878;2023-05-29T10:22:56;14.80;99.90
52103;DHT22;38101;53.126;6.878;2023-05-29T10:25:27;14.80;99.90
52103;DHT22;38101;53.126;6.878;2023-05-29T10:27:56;14.80;99.90
52103;DHT22;38101;53.126;6.878;2023-05-29T10:30:37;14.90;99.90
52103;DHT22;38101;53.126;6.878;2023-05-29T10:36:30;15.00;99.90
52103;DHT22;38101;53.126;6.878;2023-05-29T10:38:58;15.00;99.90
52103;DHT22;38101;53.126;6.878;2023-05-29T10:43:54;15.10;99.90
52103;DHT22;38101;53.126;6.878;2023-05-29T10:46:21;15.10;99.90
52103;DHT22;38101;53.126;6.878;2023-05-29T10:48:49;15.10;99.90
52103;DHT22;38101;53.126;6.878;2023-05-29T10:51:26;15.20;99.90
52103;DHT22;38101;53.126;6.878;2023-05-29T10:53:52;15.30;99.90
52103;DHT22;38101;53.126;6.878;2023-05-29T10:56:28;15.40;99.90
52103;DHT22;38101;53.126;6.878;2023-05-29T10:58:55;15.40;99.90
52103;DHT22;38101;53.126;6.878;2023-05-29T11:01:23;15.40;99.90
52103;DHT22;38101;53.126;6.878;2023-05-29T11:03:50;15.50;99.90
52103;DHT22;38101;53.126;6.878;2023-05-29T11:06:21;15.50;99.90
52103;DHT22;38101;53.126;6.878;2023-05-29T11:08:57;15.50;99.90
52103;DHT22;38101;53.126;6.878;2023-05-29T11:11:32;15.50;99.90
52103;DHT22;38101;53.126;6.878;2023-05-29T11:14:07;15.50;99.90
52103;DHT22;38101;53.126;6.878;2023-05-29T11:19:08;15.70;99.90
52103;DHT22;38101;53.126;6.878;2023-05-29T11:21:53;15.80;99.90
52103;DHT22;38101;53.126;6.878;2023-05-29T11:24:24;15.90;99.90
52103;DHT22;38101;53.126;6.878;2023-05-29T11:26:54;15.90;99.90
52103;DHT22;38101;53.126;6.878;2023-05-29T11:29:26;15.90;99.90
52103;DHT22;38101;53.126;6.878;2023-05-29T11:31:58;15.90;99.90
52103;DHT22;38101;53.126;6.878;2023-05-29T11:34:27;16.00;99.90
52103;DHT22;38101;53.126;6.878;2023-05-29T11:36:53;16.10;99.90
52103;DHT22;38101;53.126;6.878;2023-05-29T11:39:19;16.20;99.90
52103;DHT22;38101;53.126;6.878;2023-05-29T11:41:49;16.20;99.90
52103;DHT22;38101;53.126;6.878;2023-05-29T11:44:15;16.10;99.90
52103;DHT22;38101;53.126;6.878;2023-05-29T11:46:40;16.20;99.90
52103;DHT22;38101;53.126;6.878;2023-05-29T11:49:06;16.30;99.90
52103;DHT22;38101;53.126;6.878;2023-05-29T11:51:32;16.30;99.90
52103;DHT22;38101;53.126;6.878;2023-05-29T11:53:57;16.50;99.90
52103;DHT22;38101;53.126;6.878;2023-05-29T11:56:29;16.50;99.90
52103;DHT22;38101;53.126;6.878;2023-05-29T11:58:58;16.60;99.90
52103;DHT22;38101;53.126;6.878;2023-05-29T12:01:25;16.60;99.90
52103;DHT22;38101;53.126;6.878;2023-05-29T12:03:51;16.60;99.90
52103;DHT22;38101;53.126;6.878;2023-05-29T12:06:34;16.70;99.90
52103;DHT22;38101;53.126;6.878;2023-05-29T12:09:01;16.70;99.90
52103;DHT22;38101;53.126;6.878;2023-05-29T12:11:29;16.90;99.90
52103;DHT22;38101;53.126;6.878;2023-05-29T12:14:01;17.00;99.90
52103;DHT22;38101;53.126;6.878;2023-05-29T12:16:28;17.20;99.90
52103;DHT22;38101;53.126;6.878;2023-05-29T12:18:55;17.30;99.90
52103;DHT22;38101;53.126;6.878;2023-05-29T12:21:22;17.60;99.90
52103;DHT22;38101;53.126;6.878;2023-05-29T12:23:48;17.60;99.90
52103;DHT22;38101;53.126;6.878;2023-05-29T12:26:14;17.70;99.90
52103;DHT22;38101;53.126;6.878;2023-05-29T12:28:44;17.70;99.90
52103;DHT22;38101;53.126;6.878;2023-05-29T12:31:10;17.80;99.90
52103;DHT22;38101;53.126;6.878;2023-05-29T12:33:42;18.00;99.90
52103;DHT22;38101;53.126;6.878;2023-05-29T12:36:09;18.10;99.90
52103;DHT22;38101;53.126;6.878;2023-05-29T12:38:47;18.20;99.90
52103;DHT22;38101;53.126;6.878;2023-05-29T12:41:23;18.10;99.90
52103;DHT22;38101;53.126;6.878;2023-05-29T12:43:49;18.20;99.90
52103;DHT22;38101;53.126;6.878;2023-05-29T12:46:16;18.20;99.90
52103;DHT22;38101;53.126;6.878;2023-05-29T12:48:42;18.30;99.90
52103;DHT22;38101;53.126;6.878;2023-05-29T12:51:07;18.30;99.90
52103;DHT22;38101;53.126;6.878;2023-05-29T12:53:33;18.30;99.90
52103;DHT22;38101;53.126;6.878;2023-05-29T12:55:59;18.40;99.90
52103;DHT22;38101;53.126;6.878;2023-05-29T12:58:25;18.50;99.90
52103;DHT22;38101;53.126;6.878;2023-05-29T13:00:53;18.50;99.90
52103;DHT22;38101;53.126;6.878;2023-05-29T13:03:22;18.50;99.90
52103;DHT22;38101;53.126;6.878;2023-05-29T13:05:51;18.50;99.90
52103;DHT22;38101;53.126;6.878;2023-05-29T13:08:18;18.50;99.90
52103;DHT22;38101;53.126;6.878;2023-05-29T13:10:44;18.50;99.90
52103;DHT22;38101;53.126;6.878;2023-05-29T13:13:11;18.40;99.90
52103;DHT22;38101;53.126;6.878;2023-05-29T13:15:37;18.50;99.90
52103;DHT22;38101;53.126;6.878;2023-05-29T13:18:06;18.60;99.90
52103;DHT22;38101;53.126;6.878;2023-05-29T13:20:31;18.60;99.90
52103;DHT22;38101;53.126;6.878;2023-05-29T13:22:57;18.60;99.90
52103;DHT22;38101;53.126;6.878;2023-05-29T13:25:23;18.60;99.90
52103;DHT22;38101;53.126;6.878;2023-05-29T13:27:51;18.80;99.90
52103;DHT22;38101;53.126;6.878;2023-05-29T13:30:18;18.80;99.90
52103;DHT22;38101;53.126;6.878;2023-05-29T13:32:44;18.90;99.90
52103;DHT22;38101;53.126;6.878;2023-05-29T13:35:10;19.00;99.90
52103;DHT22;38101;53.126;6.878;2023-05-29T13:37:36;19.00;99.90
52103;DHT22;38101;53.126;6.878;2023-05-29T13:40:03;19.00;99.90
52103;DHT22;38101;53.126;6.878;2023-05-29T13:42:30;19.10;99.90
52103;DHT22;38101;53.126;6.878;2023-05-29T13:44:56;19.20;99.90
52103;DHT22;38101;53.126;6.878;2023-05-29T13:47:21;19.10;99.90
52103;DHT22;38101;53.126;6.878;2023-05-29T13:49:47;19.20;99.90
52103;DHT22;38101;53.126;6.878;2023-05-29T13:52:13;19.10;99.90
52103;DHT22;38101;53.126;6.878;2023-05-29T13:54:38;19.10;99.90
52103;DHT22;38101;53.126;6.878;2023-05-29T13:57:05;19.20;99.90
52103;DHT22;38101;53.126;6.878;2023-05-29T13:59:32;19.20;99.90
52103;DHT22;38101;53.126;6.878;2023-05-29T14:01:58;19.20;99.90
52103;DHT22;38101;53.126;6.878;2023-05-29T14:04:24;19.20;99.90
52103;DHT22;38101;53.126;6.878;2023-05-29T14:06:50;19.30;99.90
52103;DHT22;38101;53.126;6.878;2023-05-29T14:09:16;19.40;99.90
52103;DHT22;38101;53.126;6.878;2023-05-29T14:11:42;19.40;99.90
52103;DHT22;38101;53.126;6.878;2023-05-29T14:14:09;19.30;99.90
52103;DHT22;38101;53.126;6.878;2023-05-29T14:16:35;19.30;99.90
52103;DHT22;38101;53.126;6.878;2023-05-29T14:19:00;19.30;99.90
52103;DHT22;38101;53.126;6.878;2023-05-29T14:21:26;19.40;99.90
52103;DHT22;38101;53.126;6.878;2023-05-29T14:23:52;19.40;99.90
52103;DHT22;38101;53.126;6.878;2023-05-29T14:26:18;19.40;99.90
52103;DHT22;38101;53.126;6.878;2023-05-29T14:28:44;19.60;99.90
52103;DHT22;38101;53.126;6.878;2023-05-29T14:31:10;19.60;99.90
52103;DHT22;38101;53.126;6.878;2023-05-29T14:33:35;19.80;99.20
52103;DHT22;38101;53.126;6.878;2023-05-29T14:36:02;19.70;99.40
52103;DHT22;38101;53.126;6.878;2023-05-29T14:38:28;19.70;99.40
52103;DHT22;38101;53.126;6.878;2023-05-29T14:40:55;19.80;99.50
52103;DHT22;38101;53.126;6.878;2023-05-29T14:43:21;19.90;99.40
52103;DHT22;38101;53.126;6.878;2023-05-29T14:45:47;20.00;98.80
52103;DHT22;38101;53.126;6.878;2023-05-29T14:48:16;20.10;99.10
52103;DHT22;38101;53.126;6.878;2023-05-29T14:50:42;20.20;98.30
52103;DHT22;38101;53.126;6.878;2023-05-29T14:53:08;20.20;96.90
52103;DHT22;38101;53.126;6.878;2023-05-29T14:55:33;20.10;97.50
52103;DHT22;38101;53.126;6.878;2023-05-29T14:58:06;20.10;97.10
52103;DHT22;38101;53.126;6.878;2023-05-29T15:00:32;20.10;96.50
52103;DHT22;38101;53.126;6.878;2023-05-29T15:02:58;20.00;96.70
52103;DHT22;38101;53.126;6.878;2023-05-29T15:05:27;20.00;96.40
52103;DHT22;38101;53.126;6.878;2023-05-29T15:07:54;20.00;95.70
52103;DHT22;38101;53.126;6.878;2023-05-29T15:10:23;20.00;95.50
52103;DHT22;38101;53.126;6.878;2023-05-29T15:12:51;20.00;95.70
52103;DHT22;38101;53.126;6.878;2023-05-29T15:15:27;20.00;96.10
52103;DHT22;38101;53.126;6.878;2023-05-29T15:17:54;20.00;96.50
52103;DHT22;38101;53.126;6.878;2023-05-29T15:20:23;20.10;96.30
52103;DHT22;38101;53.126;6.878;2023-05-29T15:22:49;20.10;95.40
52103;DHT22;38101;53.126;6.878;2023-05-29T15:25:17;20.30;94.50
52103;DHT22;38101;53.126;6.878;2023-05-29T15:27:43;20.30;93.50
52103;DHT22;38101;53.126;6.878;2023-05-29T15:30:16;20.20;93.10
52103;DHT22;38101;53.126;6.878;2023-05-29T15:32:43;20.20;93.80
52103;DHT22;38101;53.126;6.878;2023-05-29T15:35:10;20.20;94.10
52103;DHT22;38101;53.126;6.878;2023-05-29T15:37:36;20.10;94.90
52103;DHT22;38101;53.126;6.878;2023-05-29T15:40:03;20.00;95.30
52103;DHT22;38101;53.126;6.878;2023-05-29T15:42:29;20.00;95.00
52103;DHT22;38101;53.126;6.878;2023-05-29T15:44:55;20.00;94.70
52103;DHT22;38101;53.126;6.878;2023-05-29T15:47:21;19.90;95.10
52103;DHT22;38101;53.126;6.878;2023-05-29T15:49:46;19.90;95.50
52103;DHT22;38101;53.126;6.878;2023-05-29T15:52:13;19.90;95.90